Station: Minlaton Airport

  Atmospheric Gas Attenuation - ITU Rec 676-11   --------------- db/100km ---------------
Date Time Temp RH % AH g/m3 Dew Point Wind Direction Speed kph Gust kph Barometer mB Rainfall Since 9am 24GHz 47GHz 76GHz 122GHz 134GHz 241GHz
03 07:30 17.4 54 8 8 17 22 1021.4 0 18.1 24.2 36.1 94.5 87.1 299.3
03 07:20 17.1 57 8.3 8.5 11 13 1021.5 0 18.8 24.8 37.4 97.9 91.2 313.6
03 07:10 16.6 59 8.33 8.6 11 13 1021.5 0 18.9 25.0 37.7 98.9 92.1 316.9
03 07:00 16.6 59 8.33 8.6 11 19 1021.2 0 18.9 25.0 37.7 98.8 92.1 316.8
03 06:50 15.6 65 8.64 9.1 7 7 1021.1 0 19.6 25.7 39.4 103.3 97.3 334.8
03 06:40 15.5 66 8.72 9.2 9 9 1021 0 19.8 25.9 39.8 104.3 98.5 338.8
03 06:30 15.1 66 8.51 8.8 11 17 1020.6 0 19.3 25.6 39.1 102.6 96.2 330.8
03 06:20 14.8 68 8.61 9 11 11 1020.5 0 19.6 25.9 39.7 104.0 97.9 336.7
03 06:10 14.7 69 8.69 9.1 11 11 1020.5 0 19.7 26.0 40.0 105.0 99.0 340.8
03 06:00 14.8 69 8.74 9.2 11 13 1020.3 0 19.8 26.1 40.2 105.4 99.6 342.6
03 05:50 15 69 8.85 9.4 11 11 1020.4 0 20.1 26.2 40.5 106.3 100.7 346.8
03 05:40 15 69 8.85 9.4 11 11 1020.3 0 20.1 26.2 40.5 106.3 100.7 346.8
03 05:30 15.1 68 8.77 9.2 9 13 1020.2 0 19.9 26.1 40.1 105.3 99.6 342.6
03 05:20 15.3 68 8.88 9.4 13 13 1020.2 0 20.1 26.2 40.5 106.2 100.7 346.8
03 05:00 15.3 69 9.01 9.7 13 17 1020.1 0 20.4 26.4 41.0 107.5 102.4 352.8
03 04:50 15.3 69 9.01 9.7 11 15 1020.3 0 20.4 26.4 41.0 107.6 102.5 352.8
03 04:40 15.3 70 9.14 9.9 13 15 1020.2 0 20.7 26.6 41.5 109.0 104.2 358.8
03 04:30 15 72 9.23 10 9 15 1020 0 20.9 26.8 42.0 110.3 105.8 364.3
03 04:20 14.7 72 9.07 9.7 11 11 1020.1 0 20.5 26.7 41.5 109.0 104.0 358.3
03 04:10 14.6 73 9.14 9.8 11 13 1020.1 0 20.7 26.8 41.9 109.9 105.1 362.0
03 04:00 14.5 73 9.08 9.7 11 13 1020.1 0 20.6 26.7 41.7 109.4 104.4 359.6
03 03:50 14.2 74 9.04 9.6 11 13 1020.2 0 20.5 26.8 41.7 109.4 104.3 359.2
03 03:40 13.9 75 8.99 9.5 11 13 1020.1 0 20.4 26.8 41.6 109.3 104.0 358.2
03 03:30 13.6 77 9.06 9.6 13 15 1019.9 0 20.6 27.0 42.1 110.4 105.4 362.8
03 03:20 12.9 79 8.9 9.4 13 15 1020 0 20.3 26.9 41.8 109.7 104.2 358.5
03 03:10 12.7 77 8.57 8.8 15 15 1020.1 0 19.6 26.4 40.5 106.3 100.0 343.8
03 03:00 13 76 8.62 8.9 13 17 1020 0 19.7 26.4 40.6 106.5 100.2 344.8
03 02:50 13.2 76 8.73 9.1 11 13 1020.3 0 19.9 26.5 40.9 107.4 101.5 349.2
03 02:40 13.4 76 8.84 9.3 9 9 1020.4 0 20.1 26.7 41.3 108.3 102.7 353.5
03 02:30 13.4 77 8.95 9.5 11 15 1020.4 0 20.3 26.9 41.7 109.5 104.2 358.7
03 02:20 12.9 78 8.79 9.2 9 11 1020.5 0 20.0 26.7 41.4 108.5 102.7 353.4
03 02:10 12.8 82 9.19 9.8 13 13 1020.6 0 20.9 27.4 43.1 113.1 108.3 373.0
03 02:00 12.1 85 9.12 9.7 13 13 1020.5 0 20.8 27.5 43.2 113.3 108.3 372.9
03 01:50 11.1 87 8.76 9 13 15 1020.6 0 20.1 27.2 42.2 110.7 104.7 360.2
03 01:40 9.4 86 7.78 7.2 15 17 1020.6 0 18.0 26.1 39.0 102.1 93.4 320.4
03 01:30 9.1 84 7.46 6.5 13 13 1020.5 0 17.4 25.7 37.8 98.9 89.4 306.3
03 01:20 9.4 84 7.6 6.8 11 11 1020.8 0 17.6 25.8 38.2 100.1 91.0 311.9
03 01:10 9.3 83 7.46 6.6 11 13 1020.7 0 17.3 25.6 37.7 98.7 89.2 305.6
03 01:00 9.4 82 7.42 6.5 13 15 1020.7 0 17.3 25.5 37.5 98.1 88.5 303.3
03 00:50 9.7 83 7.65 7 15 15 1020.9 0 17.7 25.8 38.3 100.3 91.3 313.1
03 00:40 9.5 82 7.47 6.6 15 17 1020.8 0 17.4 25.6 37.6 98.5 89.1 305.3
03 00:30 9.7 78 7.19 6.1 13 13 1020.9 0 16.8 25.1 36.4 95.3 85.1 291.4
03 00:20 10.7 76 7.47 6.6 11 11 1021.1 0 17.3 25.2 37.1 97.1 87.8 300.7
03 00:10 11.4 76 7.8 7.3 11 13 1021.1 0 18.0 25.6 38.1 99.8 91.3 313.4
03 00:00 12.1 75 8.04 7.8 15 19 1020.9 0 18.5 25.8 38.7 101.4 93.7 321.7
02 23:50 12.3 75 8.14 8 15 17 1021 0 18.7 25.9 39.0 102.3 94.8 325.6
02 23:40 12.1 75 8.04 7.8 15 17 1021 0 18.5 25.8 38.7 101.5 93.7 321.7
02 23:30 11.8 76 8 7.7 17 19 1020.8 0 18.4 25.8 38.7 101.4 93.5 321.0
02 23:20 11.7 75 7.85 7.4 15 15 1021 0 18.1 25.6 38.2 99.9 91.6 314.5
02 23:10 12.1 75 8.04 7.8 15 17 1020.8 0 18.5 25.8 38.7 101.4 93.7 321.7
02 23:00 12.3 76 8.25 8.2 17 20 1020.5 0 18.9 26.0 39.5 103.4 96.2 330.6
02 22:50 12.4 75 8.2 8.1 17 19 1020.6 0 18.8 25.9 39.2 102.8 95.4 327.8
02 22:40 12.8 74 8.29 8.3 17 17 1020.7 0 19.0 26.0 39.4 103.2 96.1 330.4
02 22:30 12.9 74 8.34 8.4 17 20 1020.6 0 19.1 26.0 39.5 103.6 96.7 332.3
02 22:20 12.7 72 8.02 7.8 17 19 1020.8 0 18.4 25.6 38.3 100.5 92.7 318.3
02 22:10 13 72 8.17 8.1 17 19 1020.8 0 18.7 25.7 38.8 101.7 94.3 324.0
02 22:00 13.4 70 8.14 8 17 20 1020.6 0 18.6 25.5 38.5 100.8 93.4 320.9
02 21:50 13.7 69 8.17 8.1 17 20 1020.6 0 18.7 25.5 38.5 100.8 93.5 321.1
02 21:40 14 68 8.2 8.2 19 20 1020.5 0 18.7 25.5 38.4 100.7 93.5 321.2
02 21:30 14 67 8.08 8 19 22 1020.3 0 18.5 25.3 37.9 99.4 91.9 315.7
02 21:20 14.2 65 7.94 7.7 17 20 1020.3 0 18.2 25.0 37.3 97.7 89.9 308.6
02 21:10 14.4 63 7.79 7.5 17 19 1020.2 0 17.8 24.7 36.6 95.9 87.7 301.0
02 21:00 14.9 62 7.9 7.7 22 30 1020.1 0 18.0 24.7 36.8 96.4 88.5 304.0
02 20:50 15.2 61 7.92 7.7 22 28 1020 0 18.1 24.7 36.7 96.2 88.4 303.7
02 20:40 15.4 59 7.75 7.4 20 22 1019.8 0 17.7 24.3 36.0 94.2 86.1 295.4
02 20:30 16.1 52 7.13 6.3 20 30 1019.6 0 16.4 23.2 33.4 87.2 77.7 266.0
02 20:20 16.6 50 7.06 6.1 20 26 1019.7 0 16.2 23.0 32.9 86.0 76.3 261.4
02 20:10 17.1 50 7.28 6.6 26 33 1019.6 0 16.6 23.2 33.5 87.6 78.5 269.1
02 20:00 17.3 56 8.25 8.4 22 30 1019.3 0 18.7 24.6 37.0 97.0 90.2 310.0
02 19:50 17.9 55 8.4 8.7 26 30 1019.2 0 19.0 24.6 37.3 97.8 91.3 314.2
02 19:40 18.1 52 8.03 8.1 30 35 1019.1 0 18.2 24.0 35.8 93.8 86.5 297.4
02 19:30 18.4 51 8.02 8.1 30 39 1018.8 0 18.1 23.9 35.6 93.3 86.1 295.8
02 19:20 18.7 51 8.16 8.4 28 32 1018.8 0 18.4 24.1 36.0 94.4 87.4 300.7
02 19:10 19.3 50 8.29 8.6 32 41 1018.7 0 18.7 24.1 36.2 94.9 88.4 304.0
02 19:00 19.6 52 8.78 9.5 30 41 1018.5 0 19.7 24.7 37.9 99.4 94.0 323.8
02 18:50 20 48 8.29 8.7 30 35 1018.4 0 18.6 23.9 35.9 94.1 87.6 301.2
02 18:40 20 47 8.12 8.4 33 41 1018.3 0 18.3 23.6 35.3 92.4 85.5 294.1
02 18:30 20.4 45 7.96 8.1 33 44 1017.9 0 17.9 23.3 34.5 90.4 83.2 285.9
02 18:20 20.7 43 7.74 7.7 41 46 1017.9 0 17.5 22.9 33.6 88.0 80.3 275.7
02 18:10 21.6 41 7.78 7.8 28 32 1017.8 0 17.5 22.7 33.4 87.4 79.8 274.3
02 18:00 22.2 40 7.85 8 28 41 1017.6 0 17.6 22.7 33.4 87.4 80.0 275.1
02 17:50 21.6 41 7.78 7.8 22 28 1017.6 0 17.5 22.7 33.4 87.3 79.8 274.3
02 17:40 22 38 7.37 7 35 41 1017.4 0 16.6 22.0 31.8 83.1 74.7 256.4
02 17:30 22.4 37 7.35 7 28 41 1017.3 0 16.6 21.9 31.6 82.5 74.1 254.4
02 17:20 22.7 34 6.87 6 30 35 1017.4 0 15.6 21.2 29.8 77.9 68.5 234.7
02 17:10 23 34 6.99 6.3 33 44 1017.3 0 15.8 21.3 30.1 78.7 69.6 238.5
02 17:00 23.1 34 7.03 6.4 24 35 1017.2 0 15.9 21.3 30.2 78.9 69.9 239.7
02 16:50 23.6 33 7.02 6.4 24 30 1017.2 0 15.8 21.2 30.0 78.4 69.4 237.9
02 16:40 23.6 32 6.81 6 37 44 1016.9 0 15.4 20.9 29.3 76.5 67.1 229.8
02 16:30 24.4 29 6.45 5.2 30 41 1016.8 0 14.6 20.2 27.8 72.6 62.6 214.0
02 16:20 23.9 32 6.92 6.2 30 39 1016.6 0 15.6 21.0 29.5 77.1 68.0 233.1
02 16:10 24.4 31 6.9 6.2 32 35 1016.6 0 15.6 20.8 29.3 76.5 67.4 230.9
02 16:00 24.7 32 7.24 6.9 30 39 1016.6 0 16.2 21.2 30.3 79.2 70.8 243.0
02 15:50 24.4 33 7.34 7.1 33 41 1016.5 0 16.5 21.4 30.7 80.4 72.2 247.7
02 15:40 24.1 33 7.22 6.8 32 41 1016.5 0 16.2 21.3 30.5 79.6 71.1 244.0
02 15:30 23.8 34 7.31 7 30 41 1016.5 0 16.4 21.5 30.9 80.7 72.4 248.4
02 15:20 25.5 31 7.34 7.1 30 39 1016.6 0 16.4 21.2 30.3 79.3 71.2 244.5
02 15:10 24.6 33 7.43 7.3 15 22 1016.8 0 16.6 21.5 31.0 81.0 73.0 250.6
02 15:00 24.7 33 7.47 7.4 24 35 1017 0 16.7 21.5 31.1 81.3 73.3 251.9
02 14:50 24.9 31 7.1 6.6 20 26 1017.1 0 15.9 21.0 29.8 77.8 69.1 237.2

Last Refresh: 03-Dec-2021 07:36:45

Bureau of Meteorology